sensor_id;sensor_type;location;lat;lon;timestamp;P1;durP1;ratioP1;P2;durP2;ratioP2
38611;SDS011;24368;52.156;20.788;2022-12-28T00:02:45;6.30;;;4.40;;
38611;SDS011;24368;52.156;20.788;2022-12-28T00:07:46;8.10;;;4.00;;
38611;SDS011;24368;52.156;20.788;2022-12-28T00:12:47;8.40;;;4.20;;
38611;SDS011;24368;52.156;20.788;2022-12-28T00:17:48;5.60;;;3.40;;
38611;SDS011;24368;52.156;20.788;2022-12-28T00:22:49;5.80;;;3.80;;
38611;SDS011;24368;52.156;20.788;2022-12-28T00:27:51;5.10;;;3.60;;
38611;SDS011;24368;52.156;20.788;2022-12-28T00:32:52;9.60;;;4.20;;
38611;SDS011;24368;52.156;20.788;2022-12-28T00:37:53;6.20;;;4.10;;
38611;SDS011;24368;52.156;20.788;2022-12-28T00:42:54;8.70;;;3.90;;
38611;SDS011;24368;52.156;20.788;2022-12-28T00:47:55;5.50;;;3.80;;
38611;SDS011;24368;52.156;20.788;2022-12-28T00:52:56;9.70;;;4.50;;
38611;SDS011;24368;52.156;20.788;2022-12-28T00:57:57;9.50;;;3.90;;
38611;SDS011;24368;52.156;20.788;2022-12-28T01:02:59;6.70;;;4.30;;
38611;SDS011;24368;52.156;20.788;2022-12-28T01:08:00;7.60;;;4.50;;
38611;SDS011;24368;52.156;20.788;2022-12-28T01:13:01;7.30;;;3.60;;
38611;SDS011;24368;52.156;20.788;2022-12-28T01:18:02;8.20;;;3.80;;
38611;SDS011;24368;52.156;20.788;2022-12-28T01:23:04;5.30;;;3.70;;
38611;SDS011;24368;52.156;20.788;2022-12-28T01:28:05;7.70;;;5.60;;
38611;SDS011;24368;52.156;20.788;2022-12-28T01:33:06;8.40;;;5.10;;
38611;SDS011;24368;52.156;20.788;2022-12-28T01:38:07;5.80;;;4.20;;
38611;SDS011;24368;52.156;20.788;2022-12-28T01:43:11;8.10;;;4.50;;
38611;SDS011;24368;52.156;20.788;2022-12-28T01:48:15;6.50;;;4.60;;
38611;SDS011;24368;52.156;20.788;2022-12-28T01:53:22;10.10;;;5.00;;
38611;SDS011;24368;52.156;20.788;2022-12-28T01:58:24;11.00;;;6.60;;
38611;SDS011;24368;52.156;20.788;2022-12-28T02:03:30;9.20;;;4.90;;
38611;SDS011;24368;52.156;20.788;2022-12-28T02:13:35;7.50;;;4.70;;
38611;SDS011;24368;52.156;20.788;2022-12-28T02:18:38;10.20;;;6.20;;
38611;SDS011;24368;52.156;20.788;2022-12-28T02:23:55;11.50;;;5.90;;
38611;SDS011;24368;52.156;20.788;2022-12-28T02:40:12;10.90;;;6.20;;
38611;SDS011;24368;52.156;20.788;2022-12-28T02:46:07;8.30;;;5.20;;
38611;SDS011;24368;52.156;20.788;2022-12-28T02:57:03;9.70;;;6.10;;
38611;SDS011;24368;52.156;20.788;2022-12-28T03:13:41;8.90;;;5.80;;
38611;SDS011;24368;52.156;20.788;2022-12-28T03:19:02;8.20;;;5.80;;
38611;SDS011;24368;52.156;20.788;2022-12-28T03:24:26;8.30;;;6.10;;
38611;SDS011;24368;52.156;20.788;2022-12-28T03:29:53;10.50;;;6.50;;
38611;SDS011;24368;52.156;20.788;2022-12-28T03:35:19;8.70;;;6.40;;
38611;SDS011;24368;52.156;20.788;2022-12-28T03:40:26;8.90;;;6.20;;
38611;SDS011;24368;52.156;20.788;2022-12-28T03:50:46;8.50;;;6.80;;
38611;SDS011;24368;52.156;20.788;2022-12-28T03:55:49;10.70;;;6.40;;
38611;SDS011;24368;52.156;20.788;2022-12-28T04:00:50;9.10;;;6.30;;
38611;SDS011;24368;52.156;20.788;2022-12-28T04:05:51;7.10;;;5.90;;
38611;SDS011;24368;52.156;20.788;2022-12-28T04:10:52;11.00;;;6.70;;
38611;SDS011;24368;52.156;20.788;2022-12-28T04:15:55;7.60;;;6.10;;
38611;SDS011;24368;52.156;20.788;2022-12-28T04:21:01;7.80;;;6.40;;
38611;SDS011;24368;52.156;20.788;2022-12-28T04:26:04;8.20;;;6.60;;
38611;SDS011;24368;52.156;20.788;2022-12-28T04:31:09;9.80;;;7.20;;
38611;SDS011;24368;52.156;20.788;2022-12-28T04:36:13;9.60;;;6.30;;
38611;SDS011;24368;52.156;20.788;2022-12-28T04:41:15;8.80;;;6.40;;
38611;SDS011;24368;52.156;20.788;2022-12-28T04:46:16;9.20;;;6.60;;
38611;SDS011;24368;52.156;20.788;2022-12-28T04:51:21;8.50;;;6.60;;
38611;SDS011;24368;52.156;20.788;2022-12-28T04:56:24;10.60;;;7.10;;
38611;SDS011;24368;52.156;20.788;2022-12-28T05:01:26;10.70;;;7.30;;
38611;SDS011;24368;52.156;20.788;2022-12-28T05:06:27;10.30;;;7.30;;
38611;SDS011;24368;52.156;20.788;2022-12-28T05:11:29;12.80;;;7.20;;
38611;SDS011;24368;52.156;20.788;2022-12-28T05:16:31;9.40;;;7.50;;
38611;SDS011;24368;52.156;20.788;2022-12-28T05:21:32;12.00;;;8.10;;
38611;SDS011;24368;52.156;20.788;2022-12-28T05:26:33;10.90;;;6.80;;
38611;SDS011;24368;52.156;20.788;2022-12-28T05:31:35;9.80;;;7.40;;
38611;SDS011;24368;52.156;20.788;2022-12-28T05:36:36;10.10;;;8.10;;
38611;SDS011;24368;52.156;20.788;2022-12-28T05:41:39;10.00;;;7.90;;
38611;SDS011;24368;52.156;20.788;2022-12-28T05:46:40;11.30;;;8.00;;
38611;SDS011;24368;52.156;20.788;2022-12-28T05:51:41;10.40;;;7.90;;
38611;SDS011;24368;52.156;20.788;2022-12-28T05:56:42;13.70;;;8.80;;
38611;SDS011;24368;52.156;20.788;2022-12-28T06:01:44;13.10;;;8.00;;
38611;SDS011;24368;52.156;20.788;2022-12-28T06:06:46;10.70;;;7.70;;
38611;SDS011;24368;52.156;20.788;2022-12-28T06:11:48;9.20;;;7.50;;
38611;SDS011;24368;52.156;20.788;2022-12-28T06:16:49;11.40;;;8.00;;
38611;SDS011;24368;52.156;20.788;2022-12-28T06:21:51;10.90;;;7.70;;
38611;SDS011;24368;52.156;20.788;2022-12-28T06:26:52;10.00;;;8.10;;
38611;SDS011;24368;52.156;20.788;2022-12-28T06:31:53;10.30;;;7.50;;
38611;SDS011;24368;52.156;20.788;2022-12-28T06:36:56;10.50;;;7.10;;
38611;SDS011;24368;52.156;20.788;2022-12-28T06:41:57;12.50;;;8.80;;
38611;SDS011;24368;52.156;20.788;2022-12-28T06:46:58;12.60;;;8.40;;
38611;SDS011;24368;52.156;20.788;2022-12-28T06:51:59;10.80;;;8.30;;
38611;SDS011;24368;52.156;20.788;2022-12-28T06:57:00;11.30;;;8.60;;
38611;SDS011;24368;52.156;20.788;2022-12-28T07:02:01;9.70;;;7.80;;
38611;SDS011;24368;52.156;20.788;2022-12-28T07:07:03;10.70;;;8.00;;
38611;SDS011;24368;52.156;20.788;2022-12-28T07:12:04;12.60;;;8.60;;
38611;SDS011;24368;52.156;20.788;2022-12-28T07:17:05;13.50;;;8.80;;
38611;SDS011;24368;52.156;20.788;2022-12-28T07:22:06;13.50;;;9.40;;
38611;SDS011;24368;52.156;20.788;2022-12-28T07:27:08;10.00;;;8.20;;
38611;SDS011;24368;52.156;20.788;2022-12-28T07:32:09;12.40;;;8.60;;
38611;SDS011;24368;52.156;20.788;2022-12-28T07:37:10;10.80;;;8.70;;
38611;SDS011;24368;52.156;20.788;2022-12-28T07:42:11;11.60;;;8.60;;
38611;SDS011;24368;52.156;20.788;2022-12-28T07:47:12;11.90;;;9.30;;
38611;SDS011;24368;52.156;20.788;2022-12-28T07:52:14;11.30;;;10.00;;
38611;SDS011;24368;52.156;20.788;2022-12-28T07:57:15;13.70;;;9.40;;
38611;SDS011;24368;52.156;20.788;2022-12-28T08:02:16;10.00;;;7.70;;
38611;SDS011;24368;52.156;20.788;2022-12-28T08:07:17;12.80;;;9.20;;
38611;SDS011;24368;52.156;20.788;2022-12-28T08:12:18;10.30;;;8.70;;
38611;SDS011;24368;52.156;20.788;2022-12-28T08:17:19;11.90;;;9.20;;
38611;SDS011;24368;52.156;20.788;2022-12-28T08:22:20;11.90;;;7.90;;
38611;SDS011;24368;52.156;20.788;2022-12-28T08:27:21;11.00;;;8.20;;
38611;SDS011;24368;52.156;20.788;2022-12-28T08:32:22;10.80;;;8.00;;
38611;SDS011;24368;52.156;20.788;2022-12-28T08:37:23;10.40;;;7.90;;
38611;SDS011;24368;52.156;20.788;2022-12-28T08:42:24;9.90;;;6.90;;
38611;SDS011;24368;52.156;20.788;2022-12-28T08:47:25;13.20;;;9.10;;
38611;SDS011;24368;52.156;20.788;2022-12-28T08:52:26;11.30;;;7.90;;
38611;SDS011;24368;52.156;20.788;2022-12-28T08:57:27;9.50;;;7.30;;
38611;SDS011;24368;52.156;20.788;2022-12-28T09:02:28;12.50;;;7.60;;
38611;SDS011;24368;52.156;20.788;2022-12-28T09:07:29;11.40;;;6.20;;
38611;SDS011;24368;52.156;20.788;2022-12-28T09:12:30;7.80;;;6.30;;
38611;SDS011;24368;52.156;20.788;2022-12-28T09:17:31;9.30;;;7.30;;
38611;SDS011;24368;52.156;20.788;2022-12-28T09:22:32;13.20;;;7.10;;
38611;SDS011;24368;52.156;20.788;2022-12-28T09:27:33;8.50;;;5.80;;
38611;SDS011;24368;52.156;20.788;2022-12-28T09:32:34;12.30;;;6.50;;
38611;SDS011;24368;52.156;20.788;2022-12-28T09:37:35;8.40;;;6.00;;
38611;SDS011;24368;52.156;20.788;2022-12-28T09:42:36;7.80;;;5.90;;
38611;SDS011;24368;52.156;20.788;2022-12-28T09:47:43;9.10;;;5.90;;
38611;SDS011;24368;52.156;20.788;2022-12-28T09:58:15;7.70;;;5.40;;
38611;SDS011;24368;52.156;20.788;2022-12-28T10:03:18;6.20;;;5.40;;
38611;SDS011;24368;52.156;20.788;2022-12-28T10:08:26;7.10;;;5.90;;
38611;SDS011;24368;52.156;20.788;2022-12-28T10:13:32;7.70;;;5.80;;
38611;SDS011;24368;52.156;20.788;2022-12-28T10:18:36;8.80;;;5.10;;
38611;SDS011;24368;52.156;20.788;2022-12-28T10:23:38;6.00;;;5.10;;
38611;SDS011;24368;52.156;20.788;2022-12-28T10:28:43;7.00;;;5.10;;
38611;SDS011;24368;52.156;20.788;2022-12-28T10:33:49;7.60;;;4.70;;
38611;SDS011;24368;52.156;20.788;2022-12-28T10:38:54;10.00;;;4.50;;
38611;SDS011;24368;52.156;20.788;2022-12-28T10:43:56;7.80;;;4.90;;
38611;SDS011;24368;52.156;20.788;2022-12-28T10:48:58;7.60;;;4.80;;
38611;SDS011;24368;52.156;20.788;2022-12-28T10:54:07;7.60;;;5.10;;
38611;SDS011;24368;52.156;20.788;2022-12-28T10:59:25;9.40;;;5.50;;
38611;SDS011;24368;52.156;20.788;2022-12-28T11:04:27;11.50;;;6.30;;
38611;SDS011;24368;52.156;20.788;2022-12-28T11:09:29;9.00;;;5.40;;
38611;SDS011;24368;52.156;20.788;2022-12-28T11:14:34;9.00;;;5.90;;
38611;SDS011;24368;52.156;20.788;2022-12-28T11:19:37;9.00;;;5.60;;
38611;SDS011;24368;52.156;20.788;2022-12-28T11:24:38;6.60;;;5.50;;
38611;SDS011;24368;52.156;20.788;2022-12-28T11:29:41;9.40;;;5.50;;
38611;SDS011;24368;52.156;20.788;2022-12-28T11:34:46;8.60;;;6.10;;
38611;SDS011;24368;52.156;20.788;2022-12-28T11:39:48;7.70;;;6.10;;
38611;SDS011;24368;52.156;20.788;2022-12-28T11:44:51;10.40;;;7.60;;
38611;SDS011;24368;52.156;20.788;2022-12-28T11:49:53;8.50;;;6.00;;
38611;SDS011;24368;52.156;20.788;2022-12-28T11:54:58;10.20;;;6.50;;
38611;SDS011;24368;52.156;20.788;2022-12-28T12:10:38;10.60;;;6.80;;
38611;SDS011;24368;52.156;20.788;2022-12-28T12:15:41;8.10;;;6.10;;
38611;SDS011;24368;52.156;20.788;2022-12-28T12:25:51;9.50;;;6.30;;
38611;SDS011;24368;52.156;20.788;2022-12-28T12:30:54;8.30;;;6.10;;
38611;SDS011;24368;52.156;20.788;2022-12-28T12:46:44;11.00;;;5.70;;
38611;SDS011;24368;52.156;20.788;2022-12-28T12:52:19;8.40;;;5.40;;
38611;SDS011;24368;52.156;20.788;2022-12-28T13:08:01;8.10;;;5.60;;
38611;SDS011;24368;52.156;20.788;2022-12-28T13:13:04;8.70;;;5.50;;
38611;SDS011;24368;52.156;20.788;2022-12-28T13:18:13;7.90;;;6.50;;
38611;SDS011;24368;52.156;20.788;2022-12-28T13:23:20;10.20;;;6.70;;
38611;SDS011;24368;52.156;20.788;2022-12-28T13:28:34;10.00;;;6.80;;
38611;SDS011;24368;52.156;20.788;2022-12-28T13:33:36;9.30;;;6.10;;
38611;SDS011;24368;52.156;20.788;2022-12-28T13:38:38;9.30;;;6.60;;
38611;SDS011;24368;52.156;20.788;2022-12-28T13:49:08;8.00;;;5.60;;
38611;SDS011;24368;52.156;20.788;2022-12-28T13:54:10;9.00;;;5.90;;
38611;SDS011;24368;52.156;20.788;2022-12-28T13:59:14;9.10;;;5.80;;
38611;SDS011;24368;52.156;20.788;2022-12-28T14:04:20;11.00;;;6.90;;
38611;SDS011;24368;52.156;20.788;2022-12-28T14:09:25;8.20;;;5.40;;
38611;SDS011;24368;52.156;20.788;2022-12-28T14:14:27;7.90;;;5.90;;
38611;SDS011;24368;52.156;20.788;2022-12-28T14:19:28;7.40;;;5.30;;
38611;SDS011;24368;52.156;20.788;2022-12-28T14:24:30;8.30;;;5.40;;
38611;SDS011;24368;52.156;20.788;2022-12-28T14:29:32;7.80;;;5.40;;
38611;SDS011;24368;52.156;20.788;2022-12-28T14:34:34;7.40;;;5.40;;
38611;SDS011;24368;52.156;20.788;2022-12-28T14:39:39;7.00;;;4.70;;
38611;SDS011;24368;52.156;20.788;2022-12-28T14:44:44;7.20;;;5.10;;
38611;SDS011;24368;52.156;20.788;2022-12-28T14:49:45;13.00;;;5.90;;
38611;SDS011;24368;52.156;20.788;2022-12-28T14:54:47;6.60;;;5.10;;
38611;SDS011;24368;52.156;20.788;2022-12-28T14:59:54;6.70;;;4.80;;
38611;SDS011;24368;52.156;20.788;2022-12-28T15:05:01;8.00;;;4.60;;
38611;SDS011;24368;52.156;20.788;2022-12-28T15:10:03;6.80;;;5.20;;
38611;SDS011;24368;52.156;20.788;2022-12-28T15:15:04;8.70;;;5.00;;
38611;SDS011;24368;52.156;20.788;2022-12-28T15:20:07;8.00;;;5.80;;
38611;SDS011;24368;52.156;20.788;2022-12-28T15:25:08;8.40;;;4.90;;
38611;SDS011;24368;52.156;20.788;2022-12-28T15:30:10;6.50;;;4.10;;
38611;SDS011;24368;52.156;20.788;2022-12-28T15:35:12;7.30;;;4.90;;
38611;SDS011;24368;52.156;20.788;2022-12-28T15:40:13;10.00;;;5.70;;
38611;SDS011;24368;52.156;20.788;2022-12-28T15:45:15;9.50;;;5.30;;
38611;SDS011;24368;52.156;20.788;2022-12-28T15:50:17;8.90;;;6.50;;
38611;SDS011;24368;52.156;20.788;2022-12-28T15:55:18;8.00;;;5.60;;
38611;SDS011;24368;52.156;20.788;2022-12-28T16:00:19;8.30;;;5.40;;
38611;SDS011;24368;52.156;20.788;2022-12-28T16:05:21;8.10;;;5.00;;
38611;SDS011;24368;52.156;20.788;2022-12-28T16:10:22;8.00;;;5.30;;
38611;SDS011;24368;52.156;20.788;2022-12-28T16:15:23;7.10;;;5.40;;
38611;SDS011;24368;52.156;20.788;2022-12-28T16:20:24;9.30;;;5.70;;
38611;SDS011;24368;52.156;20.788;2022-12-28T16:25:25;9.40;;;5.80;;
38611;SDS011;24368;52.156;20.788;2022-12-28T16:30:26;8.90;;;6.30;;
38611;SDS011;24368;52.156;20.788;2022-12-28T16:35:28;10.70;;;6.60;;
38611;SDS011;24368;52.156;20.788;2022-12-28T16:40:29;9.10;;;5.80;;
38611;SDS011;24368;52.156;20.788;2022-12-28T16:45:37;8.50;;;5.70;;
38611;SDS011;24368;52.156;20.788;2022-12-28T16:50:40;10.60;;;6.10;;
38611;SDS011;24368;52.156;20.788;2022-12-28T16:55:42;7.70;;;5.60;;
38611;SDS011;24368;52.156;20.788;2022-12-28T17:00:43;9.60;;;7.00;;
38611;SDS011;24368;52.156;20.788;2022-12-28T17:05:47;11.20;;;7.70;;
38611;SDS011;24368;52.156;20.788;2022-12-28T17:10:50;9.70;;;8.50;;
38611;SDS011;24368;52.156;20.788;2022-12-28T17:15:51;9.40;;;6.70;;
38611;SDS011;24368;52.156;20.788;2022-12-28T17:20:53;11.80;;;7.20;;
38611;SDS011;24368;52.156;20.788;2022-12-28T17:25:54;9.00;;;6.50;;
38611;SDS011;24368;52.156;20.788;2022-12-28T17:31:09;8.70;;;7.10;;
38611;SDS011;24368;52.156;20.788;2022-12-28T17:36:14;10.50;;;7.10;;
38611;SDS011;24368;52.156;20.788;2022-12-28T17:41:17;11.20;;;7.30;;
38611;SDS011;24368;52.156;20.788;2022-12-28T17:46:20;10.50;;;7.80;;
38611;SDS011;24368;52.156;20.788;2022-12-28T17:51:23;10.70;;;7.20;;
38611;SDS011;24368;52.156;20.788;2022-12-28T17:56:27;12.20;;;7.30;;
38611;SDS011;24368;52.156;20.788;2022-12-28T18:01:28;9.90;;;8.10;;
38611;SDS011;24368;52.156;20.788;2022-12-28T18:06:29;9.30;;;7.60;;
38611;SDS011;24368;52.156;20.788;2022-12-28T18:11:30;7.70;;;6.50;;
38611;SDS011;24368;52.156;20.788;2022-12-28T18:16:32;9.40;;;6.50;;
38611;SDS011;24368;52.156;20.788;2022-12-28T18:21:33;10.40;;;7.50;;
38611;SDS011;24368;52.156;20.788;2022-12-28T18:26:34;8.40;;;6.80;;
38611;SDS011;24368;52.156;20.788;2022-12-28T18:31:35;14.70;;;9.30;;
38611;SDS011;24368;52.156;20.788;2022-12-28T18:36:38;11.70;;;8.00;;
38611;SDS011;24368;52.156;20.788;2022-12-28T18:41:39;10.10;;;8.20;;
38611;SDS011;24368;52.156;20.788;2022-12-28T18:46:40;10.80;;;7.60;;
38611;SDS011;24368;52.156;20.788;2022-12-28T18:51:41;8.40;;;6.30;;
38611;SDS011;24368;52.156;20.788;2022-12-28T18:56:42;11.70;;;7.90;;
38611;SDS011;24368;52.156;20.788;2022-12-28T19:01:43;9.60;;;7.10;;
38611;SDS011;24368;52.156;20.788;2022-12-28T19:06:45;16.90;;;12.00;;
38611;SDS011;24368;52.156;20.788;2022-12-28T19:11:46;9.60;;;6.30;;
38611;SDS011;24368;52.156;20.788;2022-12-28T19:16:47;11.50;;;6.30;;
38611;SDS011;24368;52.156;20.788;2022-12-28T19:21:48;7.10;;;5.70;;
38611;SDS011;24368;52.156;20.788;2022-12-28T19:26:50;11.00;;;6.80;;
38611;SDS011;24368;52.156;20.788;2022-12-28T19:31:54;12.10;;;6.80;;
38611;SDS011;24368;52.156;20.788;2022-12-28T19:36:55;11.10;;;7.40;;
38611;SDS011;24368;52.156;20.788;2022-12-28T19:41:56;11.60;;;5.50;;
38611;SDS011;24368;52.156;20.788;2022-12-28T19:46:57;9.40;;;6.40;;
38611;SDS011;24368;52.156;20.788;2022-12-28T19:52:00;9.50;;;6.50;;
38611;SDS011;24368;52.156;20.788;2022-12-28T19:57:02;8.90;;;6.70;;
38611;SDS011;24368;52.156;20.788;2022-12-28T20:02:03;8.40;;;7.00;;
38611;SDS011;24368;52.156;20.788;2022-12-28T20:07:04;14.20;;;8.10;;
38611;SDS011;24368;52.156;20.788;2022-12-28T20:12:06;9.30;;;7.10;;
38611;SDS011;24368;52.156;20.788;2022-12-28T20:17:07;9.10;;;7.00;;
38611;SDS011;24368;52.156;20.788;2022-12-28T20:22:08;11.50;;;8.50;;
38611;SDS011;24368;52.156;20.788;2022-12-28T20:27:09;11.10;;;8.00;;
38611;SDS011;24368;52.156;20.788;2022-12-28T20:32:10;8.50;;;7.40;;
38611;SDS011;24368;52.156;20.788;2022-12-28T20:37:11;10.00;;;6.60;;
38611;SDS011;24368;52.156;20.788;2022-12-28T20:42:12;9.70;;;6.40;;
38611;SDS011;24368;52.156;20.788;2022-12-28T20:47:37;8.30;;;6.80;;
38611;SDS011;24368;52.156;20.788;2022-12-28T20:52:40;7.80;;;6.40;;
38611;SDS011;24368;52.156;20.788;2022-12-28T20:57:42;8.60;;;6.50;;
38611;SDS011;24368;52.156;20.788;2022-12-28T21:02:43;7.40;;;6.40;;
38611;SDS011;24368;52.156;20.788;2022-12-28T21:07:44;8.30;;;5.60;;
38611;SDS011;24368;52.156;20.788;2022-12-28T21:12:45;10.70;;;7.00;;
38611;SDS011;24368;52.156;20.788;2022-12-28T21:17:46;10.50;;;6.30;;
38611;SDS011;24368;52.156;20.788;2022-12-28T21:22:47;8.30;;;7.00;;
38611;SDS011;24368;52.156;20.788;2022-12-28T21:27:50;9.50;;;7.10;;
38611;SDS011;24368;52.156;20.788;2022-12-28T21:32:51;11.10;;;6.50;;
38611;SDS011;24368;52.156;20.788;2022-12-28T21:37:53;10.30;;;6.30;;
38611;SDS011;24368;52.156;20.788;2022-12-28T21:42:54;10.00;;;6.70;;
38611;SDS011;24368;52.156;20.788;2022-12-28T21:47:55;9.90;;;7.00;;
38611;SDS011;24368;52.156;20.788;2022-12-28T21:52:56;10.50;;;6.50;;
38611;SDS011;24368;52.156;20.788;2022-12-28T21:57:57;9.10;;;7.40;;
38611;SDS011;24368;52.156;20.788;2022-12-28T22:02:58;9.40;;;6.90;;
38611;SDS011;24368;52.156;20.788;2022-12-28T22:08:18;9.70;;;7.20;;
38611;SDS011;24368;52.156;20.788;2022-12-28T22:13:38;10.80;;;7.40;;
38611;SDS011;24368;52.156;20.788;2022-12-28T22:18:39;8.30;;;6.30;;
38611;SDS011;24368;52.156;20.788;2022-12-28T22:23:40;7.20;;;6.40;;
38611;SDS011;24368;52.156;20.788;2022-12-28T22:28:41;8.20;;;6.10;;
38611;SDS011;24368;52.156;20.788;2022-12-28T22:33:42;7.90;;;6.30;;
38611;SDS011;24368;52.156;20.788;2022-12-28T22:38:43;7.10;;;5.90;;
38611;SDS011;24368;52.156;20.788;2022-12-28T22:43:49;7.50;;;6.50;;
38611;SDS011;24368;52.156;20.788;2022-12-28T22:53:52;10.30;;;6.30;;
38611;SDS011;24368;52.156;20.788;2022-12-28T22:58:53;8.50;;;6.10;;
38611;SDS011;24368;52.156;20.788;2022-12-28T23:03:54;7.70;;;5.40;;
38611;SDS011;24368;52.156;20.788;2022-12-28T23:08:55;11.10;;;6.80;;
38611;SDS011;24368;52.156;20.788;2022-12-28T23:13:56;7.50;;;6.00;;
38611;SDS011;24368;52.156;20.788;2022-12-28T23:19:18;7.20;;;5.60;;
38611;SDS011;24368;52.156;20.788;2022-12-28T23:24:38;8.00;;;5.60;;
38611;SDS011;24368;52.156;20.788;2022-12-28T23:29:57;8.20;;;6.10;;
38611;SDS011;24368;52.156;20.788;2022-12-28T23:34:59;8.80;;;5.80;;
38611;SDS011;24368;52.156;20.788;2022-12-28T23:40:00;7.30;;;5.20;;
38611;SDS011;24368;52.156;20.788;2022-12-28T23:45:02;6.30;;;5.20;;
38611;SDS011;24368;52.156;20.788;2022-12-28T23:50:04;6.40;;;5.80;;
38611;SDS011;24368;52.156;20.788;2022-12-28T23:55:06;7.70;;;5.50;;
